Time;durP1;ratioP1;P1;durP2;ratioP2;P2;SDS_P1;SDS_P2;PMS_P1;PMS_P2;Temp;Humidity;BMP_temperature;BMP_pressure;BME280_temperature;BME280_humidity;BME280_pressure;Samples;Min_cycle;Max_cycle;Signal;HPM_P1;HPM_P2
2021/12/07 00:02:26;;;;;;;40.72;17.95;;;4.00;99.90;;;;;;4936194;29;20396;-82
2021/12/07 00:04:52;;;;;;;38.50;18.25;;;4.00;99.90;;;;;;4920713;29;20047;-82
2021/12/07 00:07:18;;;;;;;39.80;18.83;;;4.00;99.90;;;;;;4920453;29;20069;-82
2021/12/07 00:09:45;;;;;;;35.30;16.73;;;4.00;99.90;;;;;;4936575;29;20102;-82
2021/12/07 00:12:12;;;;;;;37.85;17.63;;;4.00;99.90;;;;;;4936206;29;20052;-82
2021/12/07 00:14:41;;;;;;;35.28;17.10;;;4.00;99.90;;;;;;4936432;29;20055;-82
2021/12/07 00:17:08;;;;;;;36.00;17.15;;;4.00;99.90;;;;;;4936211;29;20430;-82
2021/12/07 00:19:34;;;;;;;34.60;17.08;;;3.80;99.90;;;;;;4936074;29;20190;-82
2021/12/07 00:22:00;;;;;;;33.78;17.13;;;3.80;99.90;;;;;;4936055;29;20130;-82
2021/12/07 00:24:26;;;;;;;40.40;18.10;;;3.90;99.90;;;;;;4937237;29;20047;-82
2021/12/07 00:26:52;;;;;;;37.63;17.83;;;4.10;99.90;;;;;;4936315;29;20054;-81
2021/12/07 00:29:18;;;;;;;37.40;17.60;;;4.30;99.90;;;;;;4920313;29;20059;-81
2021/12/07 00:31:55;;;;;;;36.45;17.25;;;4.20;99.90;;;;;;4935655;29;20055;-82
2021/12/07 00:35:23;;;;;;;37.90;17.60;;;4.00;99.90;;;;;;4920199;29;20144;-82
2021/12/07 00:37:13;;;;;;;38.13;16.73;;;3.80;99.90;;;;;;4930397;29;20056;-81
2021/12/07 00:39:39;;;;;;;35.20;16.02;;;3.90;99.90;;;;;;4935750;29;20062;-82
2021/12/07 00:42:05;;;;;;;34.45;15.93;;;3.70;99.90;;;;;;4935829;29;20421;-82
2021/12/07 00:44:30;;;;;;;31.92;16.35;;;3.80;99.90;;;;;;4935922;29;20043;-82
2021/12/07 00:46:56;;;;;;;39.55;17.40;;;3.60;99.90;;;;;;4920073;29;20079;-82
2021/12/07 00:49:23;;;;;;;34.10;16.23;;;3.70;99.90;;;;;;4935947;29;20407;-82
2021/12/07 00:51:49;;;;;;;31.13;16.08;;;3.60;99.90;;;;;;4919933;29;20059;-81
2021/12/07 00:54:15;;;;;;;31.42;15.15;;;3.60;99.90;;;;;;4920112;29;20106;-82
2021/12/07 00:56:41;;;;;;;31.88;15.88;;;3.60;99.90;;;;;;4920261;29;20055;-81
2021/12/07 00:59:07;;;;;;;32.67;15.00;;;3.60;99.90;;;;;;4935675;29;20390;-81
2021/12/07 01:01:33;;;;;;;34.70;16.48;;;3.60;99.90;;;;;;4934844;29;20048;-81
2021/12/07 01:03:59;;;;;;;36.05;17.08;;;3.60;99.90;;;;;;4935571;29;20052;-81
2021/12/07 01:06:30;;;;;;;30.02;15.00;;;3.60;99.90;;;;;;4935486;29;20195;-81
2021/12/07 01:25:16;;;;;;;29.73;14.52;;;3.70;99.90;;;;;;4935247;29;20067;-81
2021/12/07 01:27:44;;;;;;;28.50;14.75;;;3.60;99.90;;;;;;4935221;29;20476;-81
2021/12/07 01:33:05;;;;;;;26.60;13.80;;;3.50;99.90;;;;;;4934630;29;20099;-82
2021/12/07 01:40:58;;;;;;;33.95;16.08;;;3.30;99.90;;;;;;4934813;29;20051;-82
2021/12/07 02:01:48;;;;;;;26.80;13.60;;;3.20;99.90;;;;;;4934647;29;20142;-81
2021/12/07 02:04:15;;;;;;;27.63;14.68;;;3.30;99.90;;;;;;4934734;29;20543;-81
2021/12/07 02:06:41;;;;;;;26.02;13.93;;;3.10;99.90;;;;;;4935131;29;20391;-81
2021/12/07 02:09:10;;;;;;;29.95;14.88;;;3.10;99.90;;;;;;4934888;29;20097;-81
2021/12/07 02:11:36;;;;;;;25.15;13.40;;;3.00;99.90;;;;;;4934951;29;20048;-81
2021/12/07 02:14:14;;;;;;;27.38;14.63;;;2.90;99.90;;;;;;4934996;29;20083;-81
2021/12/07 02:16:40;;;;;;;27.25;14.23;;;2.80;99.90;;;;;;4938528;29;20050;-81
2021/12/07 02:19:06;;;;;;;33.00;16.35;;;2.90;99.90;;;;;;4938414;29;20056;-81
2021/12/07 02:21:32;;;;;;;29.75;14.88;;;2.90;99.90;;;;;;4938527;29;20058;-82
2021/12/07 02:23:57;;;;;;;27.77;14.30;;;2.90;99.90;;;;;;4922609;29;20047;-81
2021/12/07 02:26:23;;;;;;;21.92;12.50;;;3.00;99.90;;;;;;4922241;29;20047;-82
2021/12/07 02:28:52;;;;;;;24.83;14.07;;;3.00;99.90;;;;;;4922427;29;20043;-81
2021/12/07 02:31:19;;;;;;;24.63;13.40;;;3.00;99.90;;;;;;4922104;29;20044;-81
2021/12/07 02:33:45;;;;;;;28.10;14.75;;;3.10;99.90;;;;;;4938319;29;20134;-81
2021/12/07 02:36:11;;;;;;;25.42;13.35;;;3.10;99.90;;;;;;4938356;29;20055;-81
2021/12/07 02:38:37;;;;;;;24.63;13.88;;;3.10;99.90;;;;;;4938145;29;20048;-81
2021/12/07 02:41:04;;;;;;;26.67;14.02;;;2.90;99.90;;;;;;4938257;29;20518;-81
2021/12/07 02:43:29;;;;;;;24.52;14.15;;;2.90;99.90;;;;;;4937937;29;20054;-81
2021/12/07 02:45:55;;;;;;;25.13;14.55;;;2.90;99.90;;;;;;4937824;29;20055;-81
2021/12/07 02:48:22;;;;;;;32.92;15.85;;;3.10;99.90;;;;;;4938066;29;20090;-81
2021/12/07 02:50:50;;;;;;;24.00;13.77;;;3.20;99.90;;;;;;4938432;29;20114;-81
2021/12/07 02:53:18;;;;;;;24.77;14.05;;;3.10;99.90;;;;;;4937937;29;20054;-81
2021/12/07 02:55:44;;;;;;;23.55;13.07;;;3.20;99.90;;;;;;4937667;29;20043;-81
2021/12/07 02:58:10;;;;;;;25.95;13.85;;;3.40;99.90;;;;;;4937761;29;20052;-81
2021/12/07 03:00:44;;;;;;;33.40;15.82;;;3.40;99.90;;;;;;4937182;29;20134;-81
2021/12/07 03:03:12;;;;;;;24.55;13.65;;;3.40;99.90;;;;;;4937381;29;20094;-81
2021/12/07 03:05:55;;;;;;;27.30;14.45;;;3.40;99.90;;;;;;4937630;29;20127;-81
2021/12/07 03:27:20;;;;;;;29.25;15.77;;;3.40;99.90;;;;;;4937168;29;20054;-81
2021/12/07 03:29:46;;;;;;;23.17;13.75;;;3.50;99.90;;;;;;4937378;29;20055;-81
2021/12/07 03:32:12;;;;;;;28.55;15.00;;;3.50;99.90;;;;;;4936318;29;20048;-81
2021/12/07 03:34:38;;;;;;;24.95;14.15;;;3.50;99.90;;;;;;4937229;29;20104;-81
2021/12/07 03:37:04;;;;;;;24.67;13.68;;;3.40;99.90;;;;;;4921136;29;20044;-81
2021/12/07 03:39:29;;;;;;;26.17;14.00;;;3.30;99.90;;;;;;4936589;29;20051;-81
2021/12/07 03:41:55;;;;;;;27.70;14.18;;;3.30;99.90;;;;;;4921264;29;20052;-81
2021/12/07 03:44:21;;;;;;;26.20;14.52;;;3.40;99.90;;;;;;4936954;29;20114;-81
2021/12/07 03:46:46;;;;;;;25.20;14.27;;;3.50;99.90;;;;;;4936975;29;20070;-81
2021/12/07 03:49:12;;;;;;;30.95;15.40;;;3.70;99.90;;;;;;4936936;29;20051;-81
2021/12/07 03:51:39;;;;;;;35.45;16.42;;;3.70;99.90;;;;;;4936871;29;20050;-81
2021/12/07 03:54:06;;;;;;;25.77;13.90;;;3.60;99.90;;;;;;4920851;29;20044;-81
2021/12/07 03:56:32;;;;;;;30.45;15.77;;;3.50;99.90;;;;;;4920821;29;20120;-80
2021/12/07 03:58:58;;;;;;;27.50;14.05;;;3.50;99.90;;;;;;4936559;29;20051;-81
2021/12/07 04:01:24;;;;;;;26.63;13.90;;;3.50;99.90;;;;;;4936177;29;20047;-81
2021/12/07 04:03:52;;;;;;;27.02;14.05;;;3.50;99.90;;;;;;4936766;29;20044;-81
2021/12/07 04:06:19;;;;;;;27.35;13.70;;;3.40;99.90;;;;;;4936462;29;20048;-81
2021/12/07 04:08:45;;;;;;;26.50;13.45;;;3.30;99.90;;;;;;4920649;29;20099;-81
2021/12/07 04:11:12;;;;;;;26.77;13.27;;;3.30;99.90;;;;;;4936057;29;20058;-81
2021/12/07 04:13:40;;;;;;;23.75;13.48;;;3.30;99.90;;;;;;4936279;29;20047;-81
2021/12/07 04:16:08;;;;;;;24.13;13.73;;;3.50;99.90;;;;;;4920476;29;20138;-81
2021/12/07 04:18:34;;;;;;;25.35;13.45;;;3.50;99.90;;;;;;4936357;29;20044;-81
2021/12/07 04:21:02;;;;;;;22.48;12.65;;;3.60;99.90;;;;;;4936096;29;20103;-81
2021/12/07 04:23:29;;;;;;;23.60;13.20;;;3.50;99.90;;;;;;4936263;29;20122;-81
2021/12/07 04:25:55;;;;;;;21.35;12.32;;;3.50;99.90;;;;;;4904518;29;20114;-81
2021/12/07 04:28:21;;;;;;;22.05;12.38;;;3.50;99.90;;;;;;4920409;29;20055;-81
2021/12/07 04:30:46;;;;;;;24.27;13.15;;;3.40;99.90;;;;;;4936299;29;20055;-81
2021/12/07 04:33:14;;;;;;;24.98;13.40;;;3.60;99.90;;;;;;4935192;29;20058;-81
2021/12/07 04:35:43;;;;;;;37.55;14.77;;;3.50;99.90;;;;;;4936066;29;20051;-81
2021/12/07 04:38:10;;;;;;;24.85;12.05;;;3.50;99.90;;;;;;4935384;29;20060;-81
2021/12/07 04:40:36;;;;;;;25.63;13.60;;;3.50;99.90;;;;;;4935642;29;20051;-81
2021/12/07 04:43:03;;;;;;;22.48;11.90;;;3.50;99.90;;;;;;4936263;29;20435;-81
2021/12/07 04:58:59;;;;;;;28.40;12.45;;;3.90;99.90;;;;;;4935371;29;20493;-81
2021/12/07 05:01:27;;;;;;;19.45;11.35;;;4.00;99.90;;;;;;4935241;29;20135;-81
2021/12/07 05:03:58;;;;;;;21.33;10.95;;;3.90;99.90;;;;;;4919716;29;20489;-81
2021/12/07 05:06:28;;;;;;;18.08;10.82;;;3.80;99.90;;;;;;4935605;29;20078;-81
2021/12/07 05:09:03;;;;;;;18.58;10.32;;;3.80;99.90;;;;;;4935307;29;20492;-81
2021/12/07 05:16:45;;;;;;;19.40;10.05;;;3.90;99.90;;;;;;4935347;29;20091;-81
2021/12/07 05:24:53;;;;;;;29.92;12.00;;;3.80;99.90;;;;;;4922031;29;20054;-80
2021/12/07 05:38:19;;;;;;;31.02;12.15;;;4.10;99.90;;;;;;4934982;29;20427;-81
2021/12/07 05:40:45;;;;;;;21.55;11.05;;;4.20;99.90;;;;;;4934716;29;20138;-81
2021/12/07 05:43:10;;;;;;;16.98;9.60;;;4.20;99.90;;;;;;4934950;29;20412;-81
2021/12/07 05:45:38;;;;;;;17.67;8.95;;;4.20;99.90;;;;;;4951114;29;20095;-81
2021/12/07 05:48:06;;;;;;;20.88;9.82;;;4.20;99.80;;;;;;4935133;29;20102;-81
2021/12/07 05:50:35;;;;;;;30.10;11.57;;;4.20;99.90;;;;;;4953439;28;20056;-81
2021/12/07 05:53:02;;;;;;;42.35;13.70;;;4.20;99.90;;;;;;4938986;29;20039;-80
2021/12/07 05:55:27;;;;;;;21.83;10.50;;;4.20;99.90;;;;;;4938739;29;20393;-81
2021/12/07 05:57:54;;;;;;;26.08;11.27;;;4.10;99.90;;;;;;4938726;29;20046;-81
2021/12/07 06:00:25;;;;;;;30.90;11.93;;;4.20;99.90;;;;;;4938398;29;20054;-81
2021/12/07 06:02:56;;;;;;;18.15;10.18;;;4.20;99.90;;;;;;4938574;29;20095;-81
2021/12/07 06:05:23;;;;;;;32.72;12.65;;;4.20;99.90;;;;;;4938746;29;20067;-80
2021/12/07 06:07:50;;;;;;;22.08;10.55;;;4.30;99.90;;;;;;4938594;29;20493;-81
2021/12/07 06:10:16;;;;;;;21.65;10.88;;;4.10;99.90;;;;;;4938639;29;20055;-81
2021/12/07 06:12:41;;;;;;;22.25;10.80;;;4.10;99.90;;;;;;4938628;29;20062;-81
2021/12/07 06:15:08;;;;;;;18.35;9.90;;;4.20;99.90;;;;;;4938777;29;20060;-81
2021/12/07 06:17:33;;;;;;;20.50;10.25;;;4.20;99.90;;;;;;4938464;29;20051;-81
2021/12/07 06:19:59;;;;;;;32.85;11.35;;;4.30;99.90;;;;;;4938353;29;20046;-81
2021/12/07 06:22:25;;;;;;;26.73;11.27;;;4.40;99.90;;;;;;4938239;29;20131;-81
2021/12/07 06:24:51;;;;;;;24.20;11.25;;;4.20;99.90;;;;;;4922606;29;20071;-80
2021/12/07 06:27:17;;;;;;;19.83;9.48;;;4.20;99.90;;;;;;4938448;29;20051;-81
2021/12/07 06:29:42;;;;;;;17.65;8.35;;;4.40;99.90;;;;;;4954375;29;20063;-81
2021/12/07 06:32:09;;;;;;;22.05;9.45;;;4.20;99.90;;;;;;4953756;29;20051;-81
2021/12/07 06:34:35;;;;;;;18.10;8.38;;;4.30;99.90;;;;;;4954442;29;20502;-81
2021/12/07 06:37:01;;;;;;;14.02;7.57;;;4.30;99.90;;;;;;4938377;29;20059;-81
2021/12/07 06:39:27;;;;;;;13.07;7.55;;;4.30;99.90;;;;;;4922058;29;20099;-81
2021/12/07 06:41:53;;;;;;;14.07;7.00;;;4.30;99.70;;;;;;4938302;29;20047;-81
2021/12/07 06:44:19;;;;;;;14.48;7.63;;;4.20;99.50;;;;;;4954014;29;20055;-81
2021/12/07 06:46:48;;;;;;;15.73;6.60;;;4.20;99.70;;;;;;4938053;29;20087;-81
2021/12/07 06:49:15;;;;;;;15.95;7.45;;;4.20;99.90;;;;;;4937741;29;20055;-81
2021/12/07 06:51:41;;;;;;;13.55;6.75;;;4.30;99.80;;;;;;4937767;29;20050;-81
2021/12/07 06:54:07;;;;;;;15.85;6.32;;;4.30;99.80;;;;;;4937935;29;20526;-81
2021/12/07 06:56:33;;;;;;;16.17;7.35;;;4.30;99.70;;;;;;4953886;29;20051;-81
2021/12/07 06:58:59;;;;;;;15.90;7.90;;;4.20;99.70;;;;;;4937603;29;20491;-81
2021/12/07 07:01:25;;;;;;;16.42;7.03;;;4.10;99.90;;;;;;4936918;29;20515;-81
2021/12/07 07:03:50;;;;;;;13.23;6.93;;;4.10;99.90;;;;;;4906719;29;20047;-81
2021/12/07 07:06:17;;;;;;;14.02;6.95;;;4.10;99.90;;;;;;4937523;29;20459;-81
2021/12/07 07:08:43;;;;;;;15.68;7.15;;;4.00;99.90;;;;;;4937658;29;20111;-81
2021/12/07 07:11:09;;;;;;;15.00;6.72;;;3.80;99.90;;;;;;4921859;29;20060;-81
2021/12/07 07:13:35;;;;;;;16.48;6.72;;;3.60;99.90;;;;;;4938040;29;20043;-81
2021/12/07 07:16:01;;;;;;;23.08;8.43;;;3.60;99.90;;;;;;4953928;29;20566;-81
2021/12/07 07:18:27;;;;;;;16.83;7.35;;;3.70;99.90;;;;;;4953454;29;20056;-81
2021/12/07 07:20:55;;;;;;;15.90;7.28;;;3.90;99.90;;;;;;4937101;29;20066;-82
2021/12/07 07:23:22;;;;;;;15.10;6.82;;;4.00;99.90;;;;;;4937053;29;20048;-82
2021/12/07 07:25:48;;;;;;;18.65;8.10;;;4.10;99.90;;;;;;4953517;29;20059;-78
2021/12/07 07:28:14;;;;;;;15.05;7.60;;;4.20;99.90;;;;;;4937262;29;20475;-81
2021/12/07 07:30:39;;;;;;;15.65;6.80;;;4.20;99.90;;;;;;4953324;29;20051;-80
2021/12/07 07:33:05;;;;;;;15.52;6.82;;;4.20;99.90;;;;;;4952680;29;20419;-84
2021/12/07 07:35:31;;;;;;;14.52;7.25;;;4.20;99.90;;;;;;4953203;29;20483;-75
2021/12/07 07:37:57;;;;;;;18.55;6.88;;;4.30;99.90;;;;;;4936881;29;20134;-75
2021/12/07 07:40:23;;;;;;;14.57;6.10;;;4.30;99.90;;;;;;4936757;29;20044;-74
2021/12/07 07:42:49;;;;;;;12.65;6.50;;;4.20;99.90;;;;;;4937189;29;20062;-74
2021/12/07 07:45:16;;;;;;;14.07;6.22;;;4.20;99.90;;;;;;4953022;29;20130;-74
2021/12/07 07:47:42;;;;;;;13.88;7.20;;;4.20;99.90;;;;;;4938046;29;20055;-75
2021/12/07 07:50:11;;;;;;;14.52;6.55;;;4.20;99.90;;;;;;4936703;29;20459;-76
2021/12/07 07:52:37;;;;;;;15.13;6.10;;;4.30;99.90;;;;;;4936924;29;20048;-75
2021/12/07 07:55:04;;;;;;;16.05;6.53;;;4.40;99.90;;;;;;4936914;29;20054;-75
2021/12/07 07:57:29;;;;;;;19.05;7.15;;;4.30;99.90;;;;;;4952513;29;20059;-75
2021/12/07 07:59:56;;;;;;;14.45;6.50;;;4.30;99.90;;;;;;4952628;29;20062;-75
2021/12/07 08:02:22;;;;;;;14.73;5.88;;;4.40;99.90;;;;;;4937227;29;20047;-74
2021/12/07 08:04:47;;;;;;;16.98;6.55;;;4.40;99.90;;;;;;4936538;29;20049;-77
2021/12/07 08:07:13;;;;;;;15.68;6.50;;;4.30;99.90;;;;;;4937530;29;20400;-75
2021/12/07 08:09:39;;;;;;;18.85;7.00;;;4.40;99.90;;;;;;4952609;29;20051;-76
2021/12/07 08:12:06;;;;;;;15.88;7.10;;;4.40;99.90;;;;;;4951779;28;20056;-75
2021/12/07 08:14:32;;;;;;;18.63;7.07;;;4.30;99.90;;;;;;4936503;29;20047;-75
2021/12/07 08:16:58;;;;;;;16.55;6.47;;;4.20;99.90;;;;;;4920795;29;20054;-75
2021/12/07 08:19:24;;;;;;;13.93;6.22;;;4.20;99.90;;;;;;4935997;29;20051;-75
2021/12/07 08:21:50;;;;;;;17.33;6.88;;;4.20;99.90;;;;;;4952472;29;20122;-75
2021/12/07 08:24:16;;;;;;;24.35;7.90;;;4.30;99.90;;;;;;4952361;29;20128;-75
2021/12/07 08:26:42;;;;;;;22.80;8.00;;;4.30;99.90;;;;;;4952685;29;20055;-75
2021/12/07 08:29:08;;;;;;;21.27;7.80;;;4.20;99.90;;;;;;4935947;29;20107;-75
2021/12/07 08:31:33;;;;;;;18.45;7.22;;;4.20;99.90;;;;;;4951840;29;20079;-75
2021/12/07 08:34:00;;;;;;;21.60;8.30;;;4.10;99.90;;;;;;4919943;29;20066;-75
2021/12/07 08:36:27;;;;;;;19.92;7.63;;;4.20;99.90;;;;;;4952276;29;20056;-75
2021/12/07 08:38:53;;;;;;;20.75;7.40;;;4.20;99.90;;;;;;4935763;29;20476;-75
2021/12/07 08:41:19;;;;;;;20.27;7.45;;;4.20;99.90;;;;;;4936032;29;20525;-75
2021/12/07 08:43:45;;;;;;;17.25;6.85;;;4.20;99.90;;;;;;4951999;29;20047;-75
2021/12/07 08:46:13;;;;;;;16.10;6.80;;;4.10;99.90;;;;;;4936763;29;20051;-75
2021/12/07 08:48:41;;;;;;;14.93;6.68;;;4.00;99.90;;;;;;4935844;29;20103;-75
2021/12/07 08:51:08;;;;;;;21.23;6.95;;;4.00;99.90;;;;;;4937060;29;20039;-75
2021/12/07 08:53:38;;;;;;;18.77;7.35;;;4.10;99.90;;;;;;4935918;29;20060;-75
2021/12/07 09:01:33;;;;;;;16.90;6.80;;;4.10;99.90;;;;;;4935405;29;20060;-72
2021/12/07 09:04:00;;;;;;;19.58;7.10;;;4.10;99.90;;;;;;4951330;29;20051;-74
2021/12/07 09:06:27;;;;;;;16.00;5.80;;;4.10;99.90;;;;;;4936684;29;20063;-74
2021/12/07 09:08:53;;;;;;;18.08;7.13;;;4.20;99.90;;;;;;4951536;29;20051;-74
2021/12/07 09:11:19;;;;;;;16.77;6.18;;;4.20;99.90;;;;;;4935584;29;20058;-74
2021/12/07 09:13:45;;;;;;;18.83;7.38;;;4.10;99.90;;;;;;4935123;29;20102;-74
2021/12/07 09:16:14;;;;;;;19.35;6.60;;;4.20;99.90;;;;;;4951545;29;20043;-75
2021/12/07 09:18:41;;;;;;;15.70;6.60;;;4.20;99.90;;;;;;4936402;29;20479;-74
2021/12/07 09:21:08;;;;;;;23.33;6.65;;;4.30;99.90;;;;;;4935196;29;20048;-74
2021/12/07 09:23:34;;;;;;;14.32;5.55;;;4.40;99.90;;;;;;4935026;29;20491;-74
2021/12/07 09:26:00;;;;;;;22.02;7.13;;;4.50;99.90;;;;;;4936313;29;20051;-74
2021/12/07 09:28:26;;;;;;;16.40;6.93;;;4.40;99.90;;;;;;4936170;29;20047;-73
2021/12/07 09:30:52;;;;;;;22.73;6.60;;;4.40;99.90;;;;;;4951280;29;20538;-72
2021/12/07 09:33:24;;;;;;;14.40;6.00;;;4.40;99.90;;;;;;4950490;29;20487;-73
2021/12/07 09:35:51;;;;;;;21.98;7.28;;;4.30;99.90;;;;;;4935387;29;20064;-74
2021/12/07 09:38:17;;;;;;;22.10;7.32;;;4.20;99.90;;;;;;4951515;29;20139;-74
2021/12/07 09:40:44;;;;;;;23.83;7.50;;;4.30;99.90;;;;;;4934661;29;20130;-75
2021/12/07 09:43:11;;;;;;;20.35;7.15;;;4.50;99.90;;;;;;4951372;29;20055;-75
2021/12/07 09:45:38;;;;;;;23.20;7.57;;;4.60;99.90;;;;;;4951661;29;20130;-74
2021/12/07 09:48:07;;;;;;;17.05;7.03;;;4.50;99.90;;;;;;4951132;29;20056;-74
2021/12/07 09:50:34;;;;;;;23.17;7.63;;;4.50;99.90;;;;;;4935159;29;20060;-75
2021/12/07 09:53:01;;;;;;;16.05;6.90;;;4.60;99.90;;;;;;4951011;29;20138;-75
2021/12/07 09:55:28;;;;;;;18.92;6.72;;;4.70;99.90;;;;;;4936151;29;20056;-75
2021/12/07 09:57:53;;;;;;;21.33;7.13;;;4.80;99.90;;;;;;4936094;29;20044;-75
2021/12/07 10:00:22;;;;;;;18.55;7.32;;;5.10;99.90;;;;;;4934794;29;20399;-75
2021/12/07 10:02:49;;;;;;;28.83;8.13;;;5.20;99.90;;;;;;4934699;29;20440;-74
2021/12/07 10:05:17;;;;;;;20.60;7.40;;;5.30;99.90;;;;;;4934926;29;20533;-75
2021/12/07 10:07:43;;;;;;;19.60;6.35;;;5.50;99.90;;;;;;4936102;29;20052;-74
2021/12/07 10:10:22;;;;;;;28.83;9.05;;;5.50;99.90;;;;;;4950745;29;20110;-74
2021/12/07 10:12:47;;;;;;;18.20;5.90;;;5.60;99.90;;;;;;4942450;29;20051;-75
2021/12/07 10:15:14;;;;;;;32.53;8.35;;;5.70;99.90;;;;;;4934282;29;20139;-75
2021/12/07 10:17:42;;;;;;;28.33;6.28;;;5.70;99.90;;;;;;4921947;29;20054;-75
2021/12/07 10:20:39;;;;;;;23.33;6.68;;;5.40;99.90;;;;;;4954554;28;20126;-75
2021/12/07 10:23:27;;;;;;;18.55;5.72;;;5.40;99.90;;;;;;4953934;29;20102;-75
2021/12/07 10:26:06;;;;;;;15.82;5.88;;;5.40;99.90;;;;;;4953691;29;20086;-75
2021/12/07 10:28:38;;;;;;;23.42;7.47;;;5.40;99.90;;;;;;4953798;28;20150;-76
2021/12/07 10:31:06;;;;;;;21.00;6.47;;;5.60;99.90;;;;;;4953793;28;20063;-75
2021/12/07 10:33:52;;;;;;;18.02;5.90;;;5.80;99.90;;;;;;4953027;28;20090;-74
2021/12/07 10:36:25;;;;;;;23.58;7.50;;;5.80;99.90;;;;;;4956827;28;20058;-78
2021/12/07 10:38:56;;;;;;;25.25;6.28;;;5.90;99.90;;;;;;4957768;28;20390;-78
2021/12/07 10:41:24;;;;;;;26.05;6.93;;;6.20;99.90;;;;;;4957117;29;20043;-78
2021/12/07 10:43:52;;;;;;;22.55;6.90;;;6.30;99.90;;;;;;4941566;29;20056;-78
2021/12/07 10:46:30;;;;;;;25.80;6.82;;;6.30;99.90;;;;;;4957394;28;20406;-78
2021/12/07 10:49:26;;;;;;;18.13;6.93;;;6.30;99.90;;;;;;4942322;29;20414;-78
2021/12/07 10:52:06;;;;;;;18.65;5.78;;;6.30;99.90;;;;;;4957052;28;20054;-79
2021/12/07 10:54:36;;;;;;;22.23;5.82;;;6.20;99.90;;;;;;4956974;28;20496;-79
2021/12/07 10:57:03;;;;;;;17.02;5.53;;;6.30;99.90;;;;;;4956954;28;20057;-77
2021/12/07 10:59:31;;;;;;;20.35;6.55;;;6.40;99.90;;;;;;4957083;29;20094;-77
2021/12/07 11:01:56;;;;;;;17.70;5.50;;;6.50;99.90;;;;;;4940593;29;20399;-79
2021/12/07 11:04:24;;;;;;;18.27;5.65;;;6.60;99.90;;;;;;4956718;29;20057;-78
2021/12/07 11:07:14;;;;;;;17.42;5.47;;;6.60;99.90;;;;;;4957926;29;20487;-78
2021/12/07 11:10:06;;;;;;;15.50;5.15;;;6.40;99.90;;;;;;4957077;28;20055;-78
2021/12/07 11:12:45;;;;;;;18.67;5.53;;;6.40;99.90;;;;;;4940530;29;20099;-78
2021/12/07 11:15:17;;;;;;;16.92;5.20;;;6.50;99.90;;;;;;4956879;28;20043;-79
2021/12/07 11:17:44;;;;;;;16.48;5.03;;;6.60;99.90;;;;;;4941915;29;20091;-78
2021/12/07 11:20:10;;;;;;;20.67;6.22;;;6.70;99.90;;;;;;4956409;29;20047;-78
2021/12/07 11:22:40;;;;;;;13.55;5.00;;;6.70;99.90;;;;;;4956768;29;20055;-78
2021/12/07 11:25:07;;;;;;;16.35;5.80;;;6.80;99.90;;;;;;4956209;28;20055;-78
2021/12/07 11:30:21;;;;;;;16.52;4.63;;;6.80;99.90;;;;;;4956679;29;20417;-78
2021/12/07 11:32:55;;;;;;;19.42;5.45;;;6.70;99.90;;;;;;4957012;28;20491;-80
2021/12/07 11:35:29;;;;;;;19.58;5.50;;;7.00;99.90;;;;;;4957684;29;20083;-79
2021/12/07 11:37:57;;;;;;;15.88;4.45;;;7.30;99.90;;;;;;4956116;29;20463;-76
2021/12/07 11:40:27;;;;;;;12.32;4.40;;;7.50;99.90;;;;;;4956125;28;20047;-76
2021/12/07 11:42:53;;;;;;;21.65;4.30;;;7.70;99.90;;;;;;4956330;28;20059;-73
2021/12/07 11:45:29;;;;;;;15.88;4.88;;;7.80;99.70;;;;;;4956257;28;20051;-73
2021/12/07 11:48:04;;;;;;;16.33;4.35;;;7.60;99.80;;;;;;4955062;28;20048;-73
2021/12/07 11:50:36;;;;;;;13.57;4.07;;;7.30;99.90;;;;;;4956052;29;20142;-73
2021/12/07 11:53:07;;;;;;;15.57;4.97;;;7.10;99.90;;;;;;4957503;29;20487;-73
2021/12/07 11:55:35;;;;;;;21.52;4.82;;;7.00;99.90;;;;;;4956147;28;20093;-72
2021/12/07 11:58:02;;;;;;;17.85;4.57;;;7.20;99.90;;;;;;4955854;28;20055;-73
2021/12/07 12:00:41;;;;;;;21.35;5.00;;;7.30;99.90;;;;;;4939897;29;20454;-72
2021/12/07 12:03:10;;;;;;;16.65;4.93;;;7.40;99.90;;;;;;4956429;29;20062;-72
2021/12/07 12:05:38;;;;;;;18.67;5.53;;;7.80;99.90;;;;;;4955720;29;20446;-72
2021/12/07 12:08:08;;;;;;;23.20;4.80;;;7.80;99.80;;;;;;4955778;29;20066;-73
2021/12/07 12:10:36;;;;;;;17.10;4.53;;;8.00;99.20;;;;;;4956155;28;20445;-70
2021/12/07 12:13:21;;;;;;;9.85;4.13;;;8.00;99.20;;;;;;4955494;28;20066;-75
2021/12/07 12:16:02;;;;;;;12.30;4.63;;;8.00;99.50;;;;;;4960221;28;20051;-73
2021/12/07 12:19:10;;;;;;;20.88;4.63;;;8.00;99.40;;;;;;4955794;28;20562;-73
2021/12/07 12:22:05;;;;;;;17.40;4.78;;;8.10;99.60;;;;;;4954834;29;20070;-73
2021/12/07 12:24:55;;;;;;;12.88;4.68;;;8.30;99.50;;;;;;4955324;28;20051;-72
2021/12/07 12:27:30;;;;;;;14.30;4.13;;;8.50;99.60;;;;;;4955559;28;20058;-73
2021/12/07 12:29:58;;;;;;;12.27;3.45;;;8.60;98.90;;;;;;4955864;29;20118;-73
2021/12/07 12:32:35;;;;;;;10.23;3.50;;;8.80;98.90;;;;;;4954797;28;20451;-73
2021/12/07 12:35:03;;;;;;;9.90;3.58;;;9.20;98.40;;;;;;4955793;29;20059;-74
2021/12/07 12:37:31;;;;;;;14.45;2.97;;;9.60;97.80;;;;;;4960753;29;20059;-72
2021/12/07 12:39:58;;;;;;;13.90;3.20;;;9.60;97.60;;;;;;4956707;28;20129;-87
2021/12/07 12:42:33;;;;;;;14.23;3.30;;;9.70;97.60;;;;;;4954996;29;20178;-78
2021/12/07 12:45:21;;;;;;;10.07;3.22;;;9.80;97.70;;;;;;4955821;28;20062;-82
2021/12/07 12:48:09;;;;;;;12.13;3.20;;;9.60;97.30;;;;;;4955915;28;20514;-73
2021/12/07 12:50:43;;;;;;;13.27;3.65;;;9.00;97.50;;;;;;4955056;28;20047;-74
2021/12/07 12:53:12;;;;;;;12.20;3.08;;;9.00;97.60;;;;;;4954854;29;20482;-75
2021/12/07 12:55:48;;;;;;;10.85;3.03;;;9.20;97.20;;;;;;4954790;28;20051;-74
2021/12/07 12:58:21;;;;;;;12.18;2.92;;;8.80;97.40;;;;;;4954666;28;20483;-74
2021/12/07 13:01:19;;;;;;;11.13;3.00;;;9.10;97.40;;;;;;4938709;29;20047;-75
2021/12/07 13:04:15;;;;;;;12.88;3.00;;;9.30;97.60;;;;;;4952554;29;20439;-75
2021/12/07 13:06:54;;;;;;;10.00;2.83;;;9.10;97.20;;;;;;4947463;29;20097;-74
2021/12/07 13:09:19;;;;;;;12.50;3.30;;;9.10;97.40;;;;;;4938620;29;20459;-74
2021/12/07 13:11:57;;;;;;;13.57;3.78;;;9.10;97.20;;;;;;4955346;29;20051;-74
2021/12/07 13:14:23;;;;;;;14.88;3.67;;;9.10;97.70;;;;;;4954689;29;20051;-74
2021/12/07 13:17:13;;;;;;;15.85;3.28;;;9.20;97.70;;;;;;4954709;29;20050;-74
2021/12/07 13:20:20;;;;;;;10.15;3.03;;;8.70;97.70;;;;;;4954364;29;20051;-75
2021/12/07 13:22:49;;;;;;;16.33;3.90;;;8.80;97.80;;;;;;4949020;29;20059;-74
2021/12/07 13:25:29;;;;;;;16.75;3.35;;;8.80;97.80;;;;;;4954680;29;20054;-74
2021/12/07 13:28:04;;;;;;;15.05;3.75;;;8.70;97.90;;;;;;4954469;29;20078;-74
2021/12/07 13:30:56;;;;;;;12.30;3.55;;;8.50;98.00;;;;;;4954459;28;20499;-74
2021/12/07 13:33:55;;;;;;;12.23;3.22;;;8.40;98.00;;;;;;4953710;28;20482;-73
2021/12/07 13:36:29;;;;;;;13.13;3.20;;;8.30;98.20;;;;;;4954138;29;20059;-74
2021/12/07 13:39:06;;;;;;;21.75;4.07;;;8.30;98.30;;;;;;4954462;28;20047;-74
2021/12/07 13:41:32;;;;;;;10.15;3.55;;;8.00;98.30;;;;;;4954747;29;20538;-74
2021/12/07 13:43:58;;;;;;;18.90;4.05;;;7.90;98.60;;;;;;4954332;28;20055;-73
2021/12/07 13:46:26;;;;;;;19.10;3.83;;;7.70;98.90;;;;;;4938344;29;20524;-74
2021/12/07 13:49:05;;;;;;;19.90;4.60;;;7.80;98.90;;;;;;4954361;28;20056;-74
2021/12/07 13:51:30;;;;;;;15.45;4.70;;;7.60;99.00;;;;;;4954331;29;20510;-74
2021/12/07 13:53:56;;;;;;;10.50;3.95;;;7.60;99.20;;;;;;4938490;29;20051;-74
2021/12/07 13:56:22;;;;;;;20.73;4.38;;;7.70;99.20;;;;;;4954076;28;20051;-74
2021/12/07 13:59:00;;;;;;;14.95;4.22;;;7.40;99.10;;;;;;4955457;28;20054;-74
2021/12/07 14:01:29;;;;;;;15.60;4.03;;;7.40;99.30;;;;;;4953963;29;20062;-74
2021/12/07 14:03:56;;;;;;;15.63;4.10;;;7.30;99.30;;;;;;4947382;28;20106;-74
2021/12/07 14:06:23;;;;;;;10.75;4.28;;;7.30;99.20;;;;;;4943979;29;20507;-74
2021/12/07 14:08:49;;;;;;;13.07;4.05;;;7.30;99.50;;;;;;4934740;29;20110;-75
2021/12/07 14:11:18;;;;;;;19.63;4.32;;;7.20;99.40;;;;;;4952547;28;20058;-74
2021/12/07 14:13:46;;;;;;;12.27;4.18;;;7.20;99.40;;;;;;4957328;29;20055;-75
2021/12/07 14:16:14;;;;;;;15.80;4.28;;;7.10;99.50;;;;;;4957609;29;20059;-74
2021/12/07 14:18:45;;;;;;;15.20;3.80;;;7.10;99.50;;;;;;4957585;28;20062;-74
2021/12/07 14:21:12;;;;;;;16.73;3.97;;;7.10;99.40;;;;;;4957414;28;20089;-73
2021/12/07 14:23:41;;;;;;;16.98;4.30;;;7.10;99.20;;;;;;4939287;28;20099;-73
2021/12/07 14:26:11;;;;;;;14.32;3.92;;;7.10;99.30;;;;;;4937879;29;20091;-71
2021/12/07 14:28:57;;;;;;;12.18;4.75;;;7.00;99.40;;;;;;4951750;29;20054;-73
2021/12/07 14:31:45;;;;;;;18.53;5.27;;;7.00;99.40;;;;;;4957734;28;20086;-72
2021/12/07 14:34:31;;;;;;;18.48;5.00;;;6.90;99.50;;;;;;4958141;29;20511;-72
2021/12/07 14:37:07;;;;;;;25.27;5.27;;;6.90;99.60;;;;;;4957305;29;20054;-72
2021/12/07 14:39:36;;;;;;;14.82;5.47;;;6.80;99.60;;;;;;4958679;29;20621;-73
2021/12/07 14:42:16;;;;;;;18.08;4.53;;;6.80;99.60;;;;;;4957634;29;20053;-72